Time;durP1;ratioP1;P1;durP2;ratioP2;P2;SDS_P1;SDS_P2;PMS_P1;PMS_P2;Temp;Humidity;BMP_temperature;BMP_pressure;BME280_temperature;BME280_humidity;BME280_pressure;Samples;Min_cycle;Max_cycle;Signal;HPM_P1;HPM_P2
2022/02/27 00:02:15;;;;;;;;;;;179.40;2252.80;;;;;;5043225;28;20026;-88
2022/02/27 00:04:41;;;;;;;27.92;15.57;;;179.50;2252.80;;;;;;5046048;28;19912;-88
2022/02/27 00:07:06;;;;;;;;;;;179.60;2252.80;;;;;;5044974;28;20430;-85
2022/02/27 00:09:32;;;;;;;26.13;17.17;;;179.50;2252.80;;;;;;5044285;28;20286;-88
2022/02/27 00:11:58;;;;;;;;;;;179.50;2252.80;;;;;;5043481;28;20108;-87
2022/02/27 00:14:24;;;;;;;25.25;16.17;;;179.60;2252.80;;;;;;5039946;28;19955;-89
2022/02/27 00:16:49;;;;;;;;;;;179.50;2252.80;;;;;;5043468;28;20017;-86
2022/02/27 00:19:15;;;;;;;22.17;14.48;;;179.60;2252.80;;;;;;5045188;28;19905;-89
2022/02/27 00:21:41;;;;;;;;;;;179.60;2252.80;;;;;;5043998;28;20048;-91
2022/02/27 00:24:07;;;;;;;24.90;15.07;;;179.60;2252.80;;;;;;5047566;28;19927;-86
2022/02/27 00:26:33;;;;;;;;;;;179.40;2252.80;;;;;;5043221;28;20546;-90
2022/02/27 00:28:59;;;;;;;22.60;13.77;;;179.50;2252.80;;;;;;5045732;28;19905;-91
2022/02/27 00:31:24;;;;;;;;;;;179.50;2252.80;;;;;;5046040;28;20058;-86
2022/02/27 00:33:50;;;;;;;25.65;15.38;;;179.60;2252.80;;;;;;5044111;28;20329;-87
2022/02/27 00:36:16;;;;;;;;;;;179.60;2252.80;;;;;;5046096;28;20030;-88
2022/02/27 00:38:42;;;;;;;25.88;14.88;;;179.60;2252.80;;;;;;5040709;28;19911;-89
2022/02/27 00:41:08;;;;;;;30.73;14.55;;;179.60;2252.80;;;;;;5042706;28;20052;-85
2022/02/27 00:43:34;;;;;;;;;;;179.50;2252.80;;;;;;5045105;28;20049;-87
2022/02/27 00:46:01;;;;;;;23.00;14.10;;;179.40;2252.80;;;;;;5044895;28;19913;-89
2022/02/27 00:48:26;;;;;;;23.60;14.13;;;179.40;2252.80;;;;;;5045427;28;20021;-89
2022/02/27 00:50:53;;;;;;;;;;;179.50;2252.80;;;;;;5041598;28;20021;-89
2022/02/27 00:53:19;;;;;;;14.95;9.70;;;179.60;2252.80;;;;;;5047135;28;19905;-90
2022/02/27 00:55:44;;;;;;;;;;;179.50;2252.80;;;;;;5045177;28;20552;-90
2022/02/27 00:58:10;;;;;;;21.23;13.35;;;179.50;2252.80;;;;;;5045508;28;19905;-88
2022/02/27 01:00:36;;;;;;;;;;;179.50;2252.80;;;;;;5047672;28;20028;-89
2022/02/27 01:03:02;;;;;;;20.85;13.30;;;179.60;2252.80;;;;;;5045751;28;19925;-89
2022/02/27 01:05:27;;;;;;;;;;;179.60;2252.80;;;;;;5043336;28;20505;-90
2022/02/27 01:07:53;;;;;;;20.10;13.20;;;179.50;2252.80;;;;;;5044322;28;19947;-87
2022/02/27 01:10:18;;;;;;;;;;;179.60;2252.80;;;;;;5045428;28;20017;-91
2022/02/27 01:12:44;;;;;;;18.60;12.10;;;179.60;2252.80;;;;;;5041697;28;19909;-89
2022/02/27 01:15:10;;;;;;;;;;;179.60;2252.80;;;;;;5041995;28;20471;-91
2022/02/27 01:17:36;;;;;;;18.00;11.40;;;179.50;2252.80;;;;;;5045281;28;19905;-90
2022/02/27 01:20:02;;;;;;;;;;;179.50;2252.80;;;;;;5042121;28;20092;-91
2022/02/27 01:22:28;;;;;;;20.85;10.85;;;179.40;2252.80;;;;;;5044312;28;19904;-80
2022/02/27 01:24:53;;;;;;;;;;;179.40;2252.80;;;;;;5046097;28;20044;-87
2022/02/27 01:27:19;;;;;;;18.73;11.48;;;179.40;2252.80;;;;;;5042454;28;19905;-83
2022/02/27 01:29:45;;;;;;;;;;;179.40;2252.80;;;;;;5048522;28;20021;-87
2022/02/27 01:32:10;;;;;;;20.48;11.88;;;179.40;2252.80;;;;;;5048757;28;19912;-90
2022/02/27 01:34:36;;;;;;;;;;;179.40;2252.80;;;;;;5049163;28;20146;-89
2022/02/27 01:37:02;;;;;;;18.77;11.15;;;179.40;2252.80;;;;;;5047857;28;19912;-88
2022/02/27 01:39:27;;;;;;;;;;;179.40;2252.80;;;;;;5041543;28;20505;-91
2022/02/27 01:41:53;;;;;;;18.00;10.00;;;179.40;2252.80;;;;;;5041899;28;19912;-91
2022/02/27 01:44:20;;;;;;;;;;;179.40;2252.80;;;;;;5046749;28;20423;-91
2022/02/27 01:47:01;;;;;;;11.10;7.45;;;179.40;2252.80;;;;;;5044941;28;19952;-90
2022/02/27 01:49:28;;;;;;;15.35;9.45;;;179.40;2252.80;;;;;;5045288;28;20035;-90
2022/02/27 01:51:54;;;;;;;14.75;9.95;;;179.30;2252.80;;;;;;5044636;28;20064;-88
2022/02/27 01:54:21;;;;;;;16.13;9.18;;;179.40;2252.80;;;;;;5043678;28;20116;-90
2022/02/27 01:56:47;;;;;;;15.07;9.75;;;179.30;2252.80;;;;;;5039852;28;20049;-91
2022/02/27 01:59:13;;;;;;;;;;;179.30;2252.80;;;;;;5047807;28;20024;-89
2022/02/27 02:01:39;;;;;;;14.07;9.50;;;179.30;2252.80;;;;;;5045421;28;19963;-89
2022/02/27 02:04:04;;;;;;;;;;;179.30;2252.80;;;;;;5042213;28;20049;-88
2022/02/27 02:06:31;;;;;;;12.50;7.78;;;179.40;2252.80;;;;;;5041681;28;20463;-90
2022/02/27 02:08:57;;;;;;;;;;;179.30;2252.80;;;;;;5041887;28;20104;-91
2022/02/27 02:11:22;;;;;;;16.30;9.52;;;179.20;2252.80;;;;;;5043367;28;19996;-89
2022/02/27 02:13:48;;;;;;;;;;;179.30;2252.80;;;;;;5044166;28;20087;-90
2022/02/27 02:16:14;;;;;;;13.60;8.35;;;179.20;2252.80;;;;;;5042313;28;19909;-89
2022/02/27 02:18:39;;;;;;;;;;;179.20;2252.80;;;;;;5036383;28;20494;-89
2022/02/27 02:21:06;;;;;;;16.15;9.88;;;179.20;2252.80;;;;;;5041653;28;19913;-91
2022/02/27 02:23:32;;;;;;;16.50;9.77;;;154.50;2252.80;;;;;;5034942;28;20064;-90
2022/02/27 02:25:59;;;;;;;;;;;154.50;2252.80;;;;;;5044759;28;20037;-90
2022/02/27 02:28:25;;;;;;;;;;;154.50;2252.80;;;;;;5044416;28;19960;-89
2022/02/27 02:30:51;;;;;;;16.70;9.50;;;154.50;2252.80;;;;;;5041531;28;19905;-89
2022/02/27 02:33:16;;;;;;;;;;;179.20;2252.80;;;;;;5043239;28;20028;-89
2022/02/27 02:35:44;;;;;;;17.23;10.38;;;179.20;2252.80;;;;;;5043118;28;19905;-89
2022/02/27 02:38:10;;;;;;;16.17;10.30;;;179.30;2252.80;;;;;;5044929;28;20593;-90
2022/02/27 02:40:36;;;;;;;;;;;179.30;2252.80;;;;;;5047442;28;20048;-87
2022/02/27 02:43:02;;;;;;;16.40;9.77;;;179.20;2252.80;;;;;;5045637;28;19955;-89
2022/02/27 02:45:28;;;;;;;;;;;179.20;2252.80;;;;;;5045328;28;20099;-90
2022/02/27 02:47:55;;;;;;;18.98;11.20;;;179.30;2252.80;;;;;;5048971;28;19909;-87
2022/02/27 02:50:22;;;;;;;19.98;11.00;;;179.30;2252.80;;;;;;5047066;28;20464;-86
2022/02/27 02:52:48;;;;;;;18.55;9.95;;;179.30;2252.80;;;;;;5045503;28;20068;-90
2022/02/27 02:55:15;;;;;;;;;;;179.40;2252.80;;;;;;5048315;28;20029;-89
2022/02/27 02:57:41;;;;;;;10.95;6.95;;;179.40;2252.80;;;;;;5044459;28;19947;-90
2022/02/27 03:00:08;;;;;;;;;;;179.40;2252.80;;;;;;5047718;28;20448;-91
2022/02/27 03:02:35;;;;;;;;;;;179.40;2252.80;;;;;;5037829;28;19928;-89
2022/02/27 03:05:01;;;;;;;15.27;10.02;;;179.40;2252.80;;;;;;5046577;28;20362;-88
2022/02/27 03:07:26;;;;;;;;;;;179.40;2252.80;;;;;;5046400;28;20111;-90
2022/02/27 03:09:52;;;;;;;15.93;10.55;;;179.40;2252.80;;;;;;5044853;28;20270;-90
2022/02/27 03:12:17;;;;;;;;;;;179.40;2252.80;;;;;;5042718;28;20025;-89
2022/02/27 03:14:43;;;;;;;17.02;11.10;;;179.30;2252.80;;;;;;5045624;28;19917;-88
2022/02/27 03:17:09;;;;;;;;;;;179.30;2252.80;;;;;;5045710;28;20025;-88
2022/02/27 03:19:35;;;;;;;19.55;10.98;;;179.40;2252.80;;;;;;5044942;28;20007;-87
2022/02/27 03:22:00;;;;;;;;;;;179.40;2252.80;;;;;;5047558;28;20106;-90
2022/02/27 03:24:26;;;;;;;15.75;10.75;;;179.40;2252.80;;;;;;5047455;28;20289;-89
2022/02/27 03:26:51;;;;;;;;;;;179.40;2252.80;;;;;;5044903;28;20021;-90
2022/02/27 03:29:17;;;;;;;17.33;10.90;;;179.40;2252.80;;;;;;5047518;28;19904;-89
2022/02/27 03:31:43;;;;;;;;;;;179.40;2252.80;;;;;;5047852;28;20048;-89
2022/02/27 03:34:08;;;;;;;17.63;10.63;;;179.40;2252.80;;;;;;5046844;28;20008;-90
2022/02/27 03:36:34;;;;;;;;;;;179.30;2252.80;;;;;;5046680;28;20071;-79
2022/02/27 03:39:00;;;;;;;17.55;10.43;;;179.40;2252.80;;;;;;5043082;28;19919;-89
2022/02/27 03:41:25;;;;;;;;;;;179.40;2252.80;;;;;;5043931;28;20064;-90
2022/02/27 03:43:51;;;;;;;17.92;11.57;;;179.30;2252.80;;;;;;5046021;28;20263;-89
2022/02/27 03:46:17;;;;;;;;;;;179.30;2252.80;;;;;;5046902;28;20044;-89
2022/02/27 03:48:42;;;;;;;20.00;10.60;;;179.30;2252.80;;;;;;5048793;28;19912;-89
2022/02/27 03:51:08;;;;;;;;;;;179.30;2252.80;;;;;;5044452;28;20021;-88
2022/02/27 03:53:34;;;;;;;19.75;10.80;;;179.40;2252.80;;;;;;5046000;28;19909;-87
2022/02/27 03:55:59;;;;;;;;;;;179.40;2252.80;;;;;;5046824;28;20017;-84
2022/02/27 03:58:25;;;;;;;16.52;10.95;;;179.30;2252.80;;;;;;5043292;28;19905;-89
2022/02/27 04:00:51;;;;;;;;;;;179.20;2252.80;;;;;;5046511;28;20451;-88
2022/02/27 04:03:16;;;;;;;16.20;10.57;;;179.40;2252.80;;;;;;5045817;28;19923;-90
2022/02/27 04:05:42;;;;;;;;;;;179.40;2252.80;;;;;;5046430;28;20483;-89
2022/02/27 04:08:08;;;;;;;17.77;11.13;;;179.40;2252.80;;;;;;5046132;28;19904;-86
2022/02/27 04:10:35;;;;;;;19.20;11.23;;;179.40;2252.80;;;;;;5043293;28;20025;-84
2022/02/27 04:13:00;;;;;;;17.15;11.00;;;179.30;2252.80;;;;;;5043639;28;20022;-88
2022/02/27 04:15:26;;;;;;;;;;;179.40;2252.80;;;;;;5046796;28;20048;-87
2022/02/27 04:17:52;;;;;;;15.57;10.43;;;179.30;2252.80;;;;;;5044023;28;19905;-87
2022/02/27 04:20:18;;;;;;;;;;;179.40;2252.80;;;;;;5043702;28;20030;-89
2022/02/27 04:22:45;;;;;;;20.92;11.23;;;179.40;2252.80;;;;;;5045929;28;19905;-85
2022/02/27 04:25:11;;;;;;;19.27;10.43;;;179.40;2252.80;;;;;;5046476;28;20071;-89
2022/02/27 04:27:37;;;;;;;19.02;10.55;;;179.50;2252.80;;;;;;5040704;28;20029;-89
2022/02/27 04:30:03;;;;;;;;;;;179.50;2252.80;;;;;;5045239;28;20049;-89
2022/02/27 04:32:29;;;;;;;18.98;11.02;;;179.60;2252.80;;;;;;5043836;28;20003;-89
2022/02/27 04:34:55;;;;;;;;;;;179.60;2252.80;;;;;;5044724;28;20115;-89
2022/02/27 04:37:22;;;;;;;17.23;9.82;;;179.60;2252.80;;;;;;5046129;28;19904;-84
2022/02/27 04:39:47;;;;;;;14.80;9.45;;;179.60;2252.80;;;;;;5038428;28;20025;-87
2022/02/27 04:42:13;;;;;;;;;;;179.60;2252.80;;;;;;5038330;28;20132;-90
2022/02/27 04:44:39;;;;;;;15.68;10.43;;;179.60;2252.80;;;;;;5045766;28;19909;-83
2022/02/27 04:47:04;;;;;;;;;;;179.50;2252.80;;;;;;5046087;28;20506;-88
2022/02/27 04:49:30;;;;;;;16.40;10.27;;;179.40;2252.80;;;;;;5047002;28;19983;-90
2022/02/27 04:51:56;;;;;;;;;;;179.40;2252.80;;;;;;5043708;28;20028;-89
2022/02/27 04:54:21;;;;;;;14.30;8.45;;;179.40;2252.80;;;;;;5042950;28;19912;-87
2022/02/27 04:56:47;;;;;;;;;;;179.40;2252.80;;;;;;5043516;28;20542;-90
2022/02/27 04:59:13;;;;;;;15.45;8.57;;;179.50;2252.80;;;;;;5048885;28;19950;-90
2022/02/27 05:01:39;;;;;;;;;;;179.40;2252.80;;;;;;5036885;28;20066;-86
2022/02/27 05:04:05;;;;;;;14.25;9.63;;;179.30;2252.80;;;;;;5042964;28;20007;-88
2022/02/27 05:06:33;;;;;;;;;;;179.30;2252.80;;;;;;5043627;28;20144;-90
2022/02/27 05:08:58;;;;;;;14.50;9.27;;;179.40;2252.80;;;;;;5042780;28;20370;-87
2022/02/27 05:11:24;;;;;;;;;;;179.40;2252.80;;;;;;5045948;28;20029;-89
2022/02/27 05:13:50;;;;;;;15.35;9.60;;;179.40;2252.80;;;;;;5040529;28;19919;-90
2022/02/27 05:16:15;;;;;;;;;;;179.40;2252.80;;;;;;5034105;28;20532;-89
2022/02/27 05:18:41;;;;;;;12.88;8.57;;;179.40;2252.80;;;;;;5034778;28;19905;-90
2022/02/27 05:21:07;;;;;;;;;;;179.50;2252.80;;;;;;5047121;28;20017;-88
2022/02/27 05:23:33;;;;;;;16.77;9.05;;;179.50;2252.80;;;;;;5048209;28;19916;-89
2022/02/27 05:25:58;;;;;;;15.32;9.35;;;179.50;2252.80;;;;;;5042332;28;20061;-88
2022/02/27 05:28:25;;;;;;;;;;;179.60;2252.80;;;;;;5043818;28;20029;-89
2022/02/27 05:30:51;;;;;;;15.85;9.10;;;179.50;2252.80;;;;;;5044620;28;19931;-89
2022/02/27 05:33:17;;;;;;;13.90;9.52;;;179.50;2252.80;;;;;;5044137;28;20120;-89
2022/02/27 05:35:43;;;;;;;;;;;179.50;2252.80;;;;;;5043082;28;20068;-90
2022/02/27 05:38:08;;;;;;;14.07;8.77;;;179.60;2252.80;;;;;;5042011;28;19956;-89
2022/02/27 05:40:34;;;;;;;;;;;179.50;2252.80;;;;;;5042838;28;20029;-84
2022/02/27 05:43:00;;;;;;;14.50;9.77;;;179.50;2252.80;;;;;;5044454;28;19920;-89
2022/02/27 05:45:25;;;;;;;;;;;179.50;2252.80;;;;;;5043080;28;20044;-87
2022/02/27 05:47:51;;;;;;;13.73;8.48;;;179.50;2252.80;;;;;;5041843;28;19951;-81
2022/02/27 05:50:17;;;;;;;;;;;179.50;2252.80;;;;;;5042664;28;21382;-84
2022/02/27 05:52:42;;;;;;;14.73;8.90;;;179.50;2252.80;;;;;;5041258;28;19905;-88
2022/02/27 05:55:09;;;;;;;;;;;179.40;2252.80;;;;;;5045543;28;20499;-87
2022/02/27 05:57:34;;;;;;;17.13;8.88;;;179.40;2252.80;;;;;;5044181;28;20007;-86
2022/02/27 06:00:00;;;;;;;;;;;179.40;2252.80;;;;;;5044103;28;20048;-89
2022/02/27 06:02:26;;;;;;;16.23;9.82;;;179.40;2252.80;;;;;;5041996;28;19913;-90
2022/02/27 06:04:52;;;;;;;;;;;179.40;2252.80;;;;;;5042122;28;20102;-89
2022/02/27 06:07:18;;;;;;;15.60;9.48;;;179.30;2252.80;;;;;;5041703;28;19955;-85
2022/02/27 06:09:43;;;;;;;;;;;179.20;2252.80;;;;;;5042796;28;20495;-88
2022/02/27 06:12:09;;;;;;;15.57;9.20;;;179.20;2252.80;;;;;;5045657;28;19916;-87
2022/02/27 06:14:35;;;;;;;;;;;179.20;2252.80;;;;;;5042129;28;20051;-92
2022/02/27 06:17:01;;;;;;;16.52;10.25;;;154.50;2252.80;;;;;;5044743;28;20281;-89
2022/02/27 06:19:26;;;;;;;;;;;154.50;2252.80;;;;;;5041366;28;20028;-89
2022/02/27 06:21:52;;;;;;;14.75;8.65;;;179.20;2252.80;;;;;;5041997;28;20406;-90
2022/02/27 06:24:17;;;;;;;;;;;179.20;2252.80;;;;;;5041382;28;20017;-89
2022/02/27 06:26:43;;;;;;;15.52;9.05;;;154.50;2252.80;;;;;;5044634;28;19912;-85
2022/02/27 06:29:09;;;;;;;;;;;154.50;2252.80;;;;;;5041054;28;20411;-89
2022/02/27 06:31:34;;;;;;;17.77;9.60;;;154.50;2252.80;;;;;;5042918;28;20408;-89
2022/02/27 06:34:00;;;;;;;;;;;154.50;2252.80;;;;;;5044576;28;20021;-89
2022/02/27 06:36:26;;;;;;;18.42;11.10;;;154.50;2252.80;;;;;;5035164;28;19905;-89
2022/02/27 06:38:52;;;;;;;;;;;154.50;2252.80;;;;;;5042398;28;20025;-90
2022/02/27 06:41:17;;;;;;;15.75;9.25;;;154.50;2252.80;;;;;;5043144;28;19909;-87
2022/02/27 06:43:43;;;;;;;;;;;179.20;2252.80;;;;;;5043691;28;20154;-90
2022/02/27 06:46:10;;;;;;;15.02;8.70;;;154.50;2252.80;;;;;;5041520;28;20003;-90
2022/02/27 06:48:35;;;;;;;14.93;9.35;;;179.20;2252.80;;;;;;5042379;28;20023;-88
2022/02/27 06:51:01;;;;;;;;;;;179.20;2252.80;;;;;;5043627;28;20025;-88
2022/02/27 06:53:27;;;;;;;13.27;8.68;;;179.40;2252.80;;;;;;5041461;28;19909;-89
2022/02/27 06:55:52;;;;;;;;;;;179.40;2252.80;;;;;;5044564;28;20029;-89
2022/02/27 06:58:19;;;;;;;18.05;9.75;;;179.60;2252.80;;;;;;5042186;28;19996;-88
2022/02/27 07:00:45;;;;;;;17.88;11.40;;;179.60;2252.80;;;;;;5044748;28;20025;-86
2022/02/27 07:03:11;;;;;;;16.42;9.23;;;179.70;2252.80;;;;;;5042419;28;20052;-85
2022/02/27 07:05:37;;;;;;;;;;;179.70;2252.80;;;;;;5041154;28;20038;-88
2022/02/27 07:08:04;;;;;;;16.13;8.75;;;179.80;2252.80;;;;;;5040886;28;20363;-85
2022/02/27 07:10:30;;;;;;;20.13;11.40;;;179.80;2252.80;;;;;;5042945;28;20032;-87
2022/02/27 07:12:55;;;;;;;;;;;179.80;2252.80;;;;;;5042696;28;20124;-87
2022/02/27 07:15:21;;;;;;;39.30;21.13;;;179.90;2252.80;;;;;;5041468;28;20351;-86
2022/02/27 07:17:47;;;;;;;;;;;179.90;2252.80;;;;;;5043419;28;20028;-87
2022/02/27 07:20:13;;;;;;;28.08;16.00;;;179.80;2252.80;;;;;;5047654;28;20265;-90
2022/02/27 07:22:38;;;;;;;;;;;179.90;2252.80;;;;;;5044557;28;20021;-94
2022/02/27 07:25:06;;;;;;;22.02;13.32;;;179.90;2252.80;;;;;;5041782;28;19999;-93
2022/02/27 07:27:35;;;;;;;18.65;11.95;;;179.90;2252.80;;;;;;5043921;28;20485;-95
2022/02/27 07:30:03;;;;;;;21.10;11.32;;;205.00;2252.80;;;;;;5037693;28;20060;-81
2022/02/27 07:32:29;;;;;;;16.95;10.73;;;180.00;2252.80;;;;;;5030857;28;20089;-87
2022/02/27 07:34:55;;;;;;;;;;;180.00;2252.80;;;;;;5024714;28;20057;-83
2022/02/27 07:37:20;;;;;;;17.67;11.23;;;180.00;2252.80;;;;;;5022538;28;20359;-89
2022/02/27 07:39:46;;;;;;;;;;;180.10;2252.80;;;;;;5019063;28;20169;-95
2022/02/27 07:42:12;;;;;;;16.63;10.05;;;180.10;2252.80;;;;;;5017173;28;19909;-96
2022/02/27 07:44:37;;;;;;;;;;;180.10;2252.80;;;;;;5024967;28;20035;-89
2022/02/27 07:47:04;;;;;;;15.77;9.70;;;180.10;2252.80;;;;;;5027856;28;19963;-89
2022/02/27 07:49:30;;;;;;;17.27;10.30;;;180.10;2252.80;;;;;;5022155;28;20037;-84
2022/02/27 07:51:55;;;;;;;;;;;180.10;2252.80;;;;;;5024614;28;20030;-82
2022/02/27 07:54:22;;;;;;;15.48;9.98;;;204.80;2252.80;;;;;;5027142;28;20055;-91
2022/02/27 07:56:48;;;;;;;15.77;10.30;;;204.80;2252.80;;;;;;5036604;28;20052;-87
2022/02/27 07:59:14;;;;;;;15.70;9.13;;;204.90;2252.80;;;;;;5036266;28;20017;-87
2022/02/27 08:01:39;;;;;;;;;;;204.90;2252.80;;;;;;5034611;28;20105;-79
2022/02/27 08:04:05;;;;;;;17.58;10.68;;;205.10;2252.80;;;;;;5035794;28;20291;-84
2022/02/27 08:06:35;;;;;;;;;;;205.10;2252.80;;;;;;5035339;28;20048;-81
2022/02/27 08:09:02;;;;;;;20.02;11.80;;;205.10;2252.80;;;;;;5035342;28;19955;-88
2022/02/27 08:11:28;;;;;;;17.65;10.85;;;205.40;2252.80;;;;;;5035108;28;20025;-85
2022/02/27 08:13:54;;;;;;;16.92;10.75;;;205.10;2252.80;;;;;;5019923;28;20073;-83
2022/02/27 08:16:19;;;;;;;;;;;205.20;2252.80;;;;;;5015597;28;20032;-80
2022/02/27 08:18:45;;;;;;;18.48;11.00;;;205.30;2252.80;;;;;;5015452;28;20321;-81
2022/02/27 08:21:11;;;;;;;;;;;205.30;2252.80;;;;;;5015803;28;20084;-83
2022/02/27 08:23:36;;;;;;;38.30;25.38;;;205.40;2252.80;;;;;;5015410;28;19906;-83
2022/02/27 08:26:02;;;;;;;;;;;205.30;2252.80;;;;;;5016084;28;20550;-84
2022/02/27 08:28:29;;;;;;;20.67;12.73;;;205.30;2252.80;;;;;;5015256;28;19936;-82
2022/02/27 08:30:55;;;;;;;17.95;12.35;;;205.30;2252.80;;;;;;5014781;28;20111;-82
2022/02/27 08:33:22;;;;;;;18.83;11.65;;;205.40;2252.80;;;;;;5014998;28;20021;-83
2022/02/27 08:35:47;;;;;;;16.42;10.90;;;205.40;2252.80;;;;;;5015942;28;20033;-83
2022/02/27 08:38:13;;;;;;;;;;;205.50;2252.80;;;;;;5015436;28;20415;-90
2022/02/27 08:40:39;;;;;;;16.23;11.80;;;205.50;2252.80;;;;;;5014670;28;19912;-86
2022/02/27 08:43:04;;;;;;;;;;;205.50;2252.80;;;;;;5016096;28;20112;-84
2022/02/27 08:45:31;;;;;;;26.27;15.13;;;205.70;2252.80;;;;;;5014496;28;20379;-85
2022/02/27 08:47:57;;;;;;;46.42;28.80;;;205.60;2252.80;;;;;;5016139;28;20089;-84
2022/02/27 08:50:23;;;;;;;;;;;205.70;2252.80;;;;;;5014877;28;20476;-86
2022/02/27 08:52:48;;;;;;;36.50;22.92;;;205.70;2252.80;;;;;;5015774;28;19905;-86
2022/02/27 08:55:17;;;;;;;;;;;205.70;2252.80;;;;;;5015164;28;20029;-85
2022/02/27 08:57:43;;;;;;;;;;;205.70;2252.80;;;;;;5014880;28;20062;-86
2022/02/27 09:00:10;;;;;;;;;;;230.50;2252.80;;;;;;5015858;28;19959;-87
2022/02/27 09:02:36;;;;;;;;;;;230.50;2252.80;;;;;;5014198;28;19951;-88
2022/02/27 09:05:02;;;;;;;;;;;230.50;2252.80;;;;;;5015371;28;19981;-89
2022/02/27 09:07:28;;;;;;;;;;;230.60;2252.80;;;;;;5014983;28;19941;-85
2022/02/27 09:09:53;;;;;;;;;;;230.60;2252.80;;;;;;5014780;28;19967;-82
2022/02/27 09:12:19;;;;;;;;;;;230.80;2252.80;;;;;;5014042;28;20008;-85
2022/02/27 09:14:45;;;;;;;;;;;230.80;2252.80;;;;;;5015122;28;19910;-94
2022/02/27 09:17:11;;;;;;;;;;;230.80;2252.80;;;;;;5033690;28;19913;-84
2022/02/27 09:19:37;;;;;;;;;;;230.80;2252.80;;;;;;5035754;28;19948;-90
2022/02/27 09:22:03;;;;;;;;;;;230.80;2252.80;;;;;;5034434;28;19954;-85
2022/02/27 09:24:28;;;;;;;;;;;230.80;2252.80;;;;;;5034892;28;19916;-89
2022/02/27 09:26:54;;;;;;;;;;;231.00;2252.80;;;;;;5034118;28;19964;-87
2022/02/27 09:29:20;;;;;;;;;;;231.00;2252.80;;;;;;5033992;28;19912;-87
2022/02/27 09:31:45;;;;;;;;;;;231.10;2252.80;;;;;;5035163;28;19905;-85
2022/02/27 09:34:11;;;;;;;;;;;231.10;2252.80;;;;;;5027598;28;20031;-88
2022/02/27 09:36:38;;;;;;;;;;;231.00;2252.80;;;;;;5022212;28;20343;-86
2022/02/27 09:39:04;;;;;;;;;;;231.00;2252.80;;;;;;5037796;28;20286;-88
2022/02/27 09:41:29;;;;;;;;;;;231.00;2252.80;;;;;;5035095;28;19909;-86
2022/02/27 09:43:58;;;;;;;;;;;230.90;2252.80;;;;;;5030546;28;19920;-91
2022/02/27 09:46:24;;;;;;;;;;;231.10;2252.80;;;;;;5023132;28;20371;-86
2022/02/27 09:48:50;;;;;;;;;;;231.20;2252.80;;;;;;5021569;28;21311;-87
2022/02/27 09:51:16;;;;;;;;;;;231.20;2252.80;;;;;;5017771;28;19996;-79
2022/02/27 09:53:42;;;;;;;;;;;231.20;2252.80;;;;;;5017965;28;19994;-87
2022/02/27 09:56:07;;;;;;;;;;;231.10;2252.80;;;;;;5026266;28;20342;-84
2022/02/27 09:58:33;;;;;;;;;;;231.20;2252.80;;;;;;5023049;28;19948;-86
2022/02/27 10:00:59;;;;;;;;;;;256.00;2252.80;;;;;;5041381;28;19913;-86
2022/02/27 10:03:26;;;;;;;;;;;256.10;2252.80;;;;;;5045682;28;19975;-93
2022/02/27 10:05:59;;;;;;;;;;;256.10;2252.80;;;;;;5035646;28;19913;-89
2022/02/27 10:08:24;;;;;;;;;;;256.00;2252.80;;;;;;5034824;28;19913;-83
2022/02/27 10:10:57;;;;;;;;;;;231.30;2252.80;;;;;;5034170;28;19959;-85
2022/02/27 10:13:32;;;;;;;;;;;231.20;2252.80;;;;;;5033280;28;19916;-89
2022/02/27 10:16:05;;;;;;;;;;;231.20;2252.80;;;;;;5034244;28;19905;-79
2022/02/27 10:18:59;;;;;;;;;;;231.30;2252.80;;;;;;5032910;28;19911;-88
2022/02/27 10:21:41;;;;;;;;;;;231.30;2252.80;;;;;;4982289;28;19910;-90
2022/02/27 10:24:08;;;;;;;;;;;256.00;2252.80;;;;;;5000625;28;19921;-83
2022/02/27 10:26:35;;;;;;;;;;;231.30;2252.80;;;;;;5004583;28;20434;-85
2022/02/27 10:29:07;;;;;;;;;;;256.10;2252.80;;;;;;4982899;28;19945;-90
2022/02/27 10:31:33;;;;;;;;;;;256.80;2252.80;;;;;;5012608;28;19952;-89
2022/02/27 10:34:15;;;;;;;;;;;256.80;2252.80;;;;;;5012877;28;19920;-80
2022/02/27 10:36:59;;;;;;;;;;;281.70;2278.40;;;;;;4997285;28;20367;-86
2022/02/27 10:39:27;;;;;;;;;;;282.00;2278.40;;;;;;5013097;28;20590;-85
2022/02/27 10:41:53;;;;;;;;;;;282.00;2278.40;;;;;;4996159;28;19917;-89
2022/02/27 10:44:23;;;;;;;;;;;281.90;2278.40;;;;;;4996255;28;19909;-84
2022/02/27 10:46:54;;;;;;;;;;;281.70;2278.40;;;;;;4996485;28;19948;-86
2022/02/27 10:49:32;;;;;;;;;;;281.70;2278.40;;;;;;4995973;28;19909;-83
2022/02/27 10:52:08;;;;;;;;;;;281.80;2278.40;;;;;;4996247;28;19906;-84
2022/02/27 10:54:38;;;;;;;;;;;281.70;2278.40;;;;;;4995486;28;19952;-85
2022/02/27 10:57:04;;;;;;;;;;;256.90;2252.80;;;;;;4994067;28;20286;-87
2022/02/27 10:59:30;;;;;;;;;;;256.90;2252.80;;;;;;5041948;28;19912;-82
2022/02/27 11:01:55;;;;;;;;;;;256.90;2252.80;;;;;;5042266;28;19995;-85
2022/02/27 11:04:21;;;;;;;;;;;256.90;2252.80;;;;;;5036791;28;19917;-83
2022/02/27 11:06:48;;;;;;;;;;;281.70;2278.40;;;;;;5036925;28;19913;-83
2022/02/27 11:09:14;;;;;;;;;;;281.90;2278.40;;;;;;5036610;28;19908;-84
2022/02/27 11:11:40;;;;;;;;;;;281.70;2278.40;;;;;;5037724;28;19916;-89
2022/02/27 11:14:07;;;;;;;;;;;281.90;2278.40;;;;;;5036682;28;20410;-86
2022/02/27 11:16:33;;;;;;;;;;;282.10;2252.80;;;;;;5036553;28;20381;-84
2022/02/27 11:18:58;;;;;;;;;;;282.00;2150.40;;;;;;5036705;28;19999;-83
2022/02/27 11:21:24;;;;;;;;;;;282.00;2150.40;;;;;;5036667;28;19971;-83
2022/02/27 11:23:50;;;;;;;;;;;282.30;2278.40;;;;;;5037478;28;19905;-84
2022/02/27 11:26:17;;;;;;;;;;;282.40;2278.40;;;;;;5036363;28;19955;-83
2022/02/27 11:28:43;;;;;;;;;;;307.30;2201.60;;;;;;5036611;28;20378;-83
2022/02/27 11:31:09;;;;;;;;;;;307.20;2176.00;;;;;;5036409;28;19905;-83
2022/02/27 11:33:34;;;;;;;;;;;282.40;2073.60;;;;;;5037418;28;19905;-85
2022/02/27 11:36:01;;;;;;;;;;;282.50;2124.80;;;;;;5036229;28;19905;-84
2022/02/27 11:38:29;;;;;;;;;;;282.40;2176.00;;;;;;5037186;28;19909;-84
2022/02/27 11:40:59;;;;;;;;;;;282.20;2278.40;;;;;;5035985;28;19917;-83
2022/02/27 11:43:43;;;;;;;;;;;282.00;2278.40;;;;;;5036142;28;19999;-84
2022/02/27 11:46:13;;;;;;;;;;;281.90;2278.40;;;;;;5037374;28;20366;-84
2022/02/27 11:48:57;;;;;;;;;;;281.70;2278.40;;;;;;5036020;28;19980;-86
2022/02/27 11:51:46;;;;;;;;;;;281.80;2278.40;;;;;;5036183;28;19905;-89
2022/02/27 11:54:14;;;;;;;;;;;281.90;2278.40;;;;;;4979418;28;19941;-90
2022/02/27 11:56:41;;;;;;;;;;;282.00;2278.40;;;;;;4979052;28;19913;-90
2022/02/27 11:59:08;;;;;;;;;;;281.80;2278.40;;;;;;4979187;28;19906;-83
2022/02/27 12:01:46;;;;;;;;;;;282.00;2278.40;;;;;;4995729;28;19909;-84
2022/02/27 12:04:20;;;;;;;;;;;281.80;2278.40;;;;;;4995466;28;19918;-89
2022/02/27 12:07:08;;;;;;;;;;;281.90;2278.40;;;;;;4995809;28;19976;-87
2022/02/27 12:09:49;;;;;;;;;;;282.00;2278.40;;;;;;4979710;28;19906;-88
2022/02/27 12:12:30;;;;;;;;;;;282.00;2278.40;;;;;;4995343;28;19917;-86
2022/02/27 12:15:14;;;;;;;;;;;282.00;2278.40;;;;;;4979410;28;19910;-86
2022/02/27 12:17:54;;;;;;;;;;;281.90;2278.40;;;;;;4978676;28;20334;-81
2022/02/27 12:20:38;;;;;;;;;;;282.00;2278.40;;;;;;4995458;28;19905;-79
2022/02/27 12:23:04;;;;;;;;;;;281.80;2278.40;;;;;;4979281;28;19910;-84
2022/02/27 12:25:33;;;;;;;;;;;281.80;2278.40;;;;;;4979819;28;19920;-80
2022/02/27 12:27:59;;;;;;;;;;;281.70;2278.40;;;;;;4998990;28;19906;-92
2022/02/27 12:30:25;;;;;;;;;;;281.80;2278.40;;;;;;5001654;28;19905;-78
2022/02/27 12:32:50;;;;;;;;;;;281.80;2278.40;;;;;;5035796;28;19986;-78
2022/02/27 12:35:17;;;;;;;;;;;281.90;2278.40;;;;;;5034892;28;19905;-86
2022/02/27 12:37:43;;;;;;;;;;;281.90;2278.40;;;;;;5034852;28;19904;-87
2022/02/27 12:40:09;;;;;;;;;;;281.90;2278.40;;;;;;5035980;28;20247;-83
2022/02/27 12:42:35;;;;;;;;;;;281.80;2278.40;;;;;;5036077;28;19913;-78
2022/02/27 12:45:00;;;;;;;;;;;281.80;2278.40;;;;;;5034906;28;19921;-82
2022/02/27 12:47:26;;;;;;;;;;;281.90;2278.40;;;;;;5034513;28;19905;-86
2022/02/27 12:52:38;;;;;;;;;;;282.00;2278.40;;;;;;5036495;28;19928;-91
2022/02/27 12:55:06;;;;;;;;;;;282.00;2278.40;;;;;;5034583;28;19912;-89
2022/02/27 12:57:32;;;;;;;;;;;282.00;2201.60;;;;;;5033680;28;19991;-91
2022/02/27 12:59:57;;;;;;;;;;;281.80;2150.40;;;;;;5034275;28;19905;-90
2022/02/27 13:02:25;;;;;;;;;;;281.90;2150.40;;;;;;5034320;28;19924;-82